createdAt,value
2018-04-14T00:01:27.857Z,6.30
2018-04-14T00:03:56.873Z,6.10
2018-04-14T00:06:25.918Z,6.10
2018-04-14T00:08:54.968Z,6.00
2018-04-14T00:11:24.070Z,6.10
2018-04-14T00:13:53.088Z,6.10
2018-04-14T00:16:22.222Z,6.10
2018-04-14T00:18:51.221Z,5.80
2018-04-14T00:21:21.034Z,5.90
2018-04-14T00:23:50.820Z,5.60
2018-04-14T00:26:19.888Z,5.20
2018-04-14T00:28:48.902Z,5.50
2018-04-14T00:31:17.963Z,5.60
2018-04-14T00:33:46.980Z,5.60
2018-04-14T00:36:16.025Z,5.50
2018-04-14T00:38:45.026Z,5.70
2018-04-14T00:41:14.070Z,5.50
2018-04-14T00:43:43.162Z,5.70
2018-04-14T00:46:12.249Z,5.60
2018-04-14T00:48:41.291Z,5.60
2018-04-14T00:51:10.309Z,5.40
2018-04-14T00:53:48.090Z,5.50
2018-04-14T00:56:17.141Z,5.50
2018-04-14T00:58:46.143Z,5.50
2018-04-14T01:01:15.976Z,5.30
2018-04-14T01:03:45.800Z,5.40
2018-04-14T01:06:14.854Z,5.50
2018-04-14T01:08:43.866Z,5.60
2018-04-14T01:11:12.914Z,5.50
2018-04-14T01:13:41.926Z,5.40
2018-04-14T01:16:10.978Z,5.60
2018-04-14T01:18:39.990Z,5.70
2018-04-14T01:21:09.042Z,5.70
2018-04-14T01:23:38.276Z,5.70
2018-04-14T01:26:07.336Z,4.20
2018-04-14T01:28:36.389Z,5.70
2018-04-14T01:31:05.513Z,5.80
2018-04-14T01:33:34.566Z,5.70
2018-04-14T01:36:03.572Z,5.80
2018-04-14T01:38:32.622Z,5.70
2018-04-14T01:41:01.672Z,5.60
2018-04-14T01:43:30.724Z,5.70
2018-04-14T01:45:59.747Z,5.70
2018-04-14T01:48:29.588Z,5.70
2018-04-14T01:50:58.595Z,5.70
2018-04-14T01:53:27.613Z,5.70
2018-04-14T01:55:56.658Z,5.70
2018-04-14T01:58:25.711Z,5.70
2018-04-14T02:00:54.720Z,5.40
2018-04-14T02:03:23.759Z,5.60
2018-04-14T02:05:52.769Z,5.60
2018-04-14T02:08:21.846Z,5.50
2018-04-14T02:10:50.862Z,5.60
2018-04-14T02:13:19.871Z,5.60
2018-04-14T02:15:50.016Z,5.60
2018-04-14T02:18:19.045Z,5.50
2018-04-14T02:20:48.090Z,5.60
2018-04-14T02:23:17.098Z,5.70
2018-04-14T02:25:46.910Z,5.60
2018-04-14T02:28:16.688Z,5.50
2018-04-14T02:30:45.758Z,5.50
2018-04-14T02:33:15.006Z,5.50
2018-04-14T02:35:44.072Z,5.60
2018-04-14T02:38:13.078Z,5.50
2018-04-14T02:40:42.131Z,5.10
2018-04-14T02:43:11.150Z,5.30
2018-04-14T02:45:40.169Z,5.40
2018-04-14T02:48:10.006Z,5.40
2018-04-14T02:50:39.086Z,5.40
2018-04-14T02:53:08.099Z,5.40
2018-04-14T02:55:37.172Z,5.40
2018-04-14T02:58:06.193Z,5.40
2018-04-14T03:00:35.237Z,5.40
2018-04-14T03:03:04.261Z,5.20
2018-04-14T03:05:33.306Z,5.30
2018-04-14T03:08:02.327Z,5.40
2018-04-14T03:10:31.399Z,5.20
2018-04-14T03:13:00.487Z,5.20
2018-04-14T03:15:29.480Z,5.20
2018-04-14T03:17:58.516Z,4.60
2018-04-14T03:20:27.539Z,4.70
2018-04-14T03:22:56.569Z,4.60
2018-04-14T03:25:26.382Z,4.80
2018-04-14T03:27:56.162Z,4.20
2018-04-14T03:30:25.170Z,4.90
2018-04-14T03:32:54.221Z,5.00
2018-04-14T03:35:23.277Z,5.00
2018-04-14T03:37:53.087Z,5.00
2018-04-14T03:40:22.154Z,5.00
2018-04-14T03:42:51.166Z,5.00
2018-04-14T03:45:21.051Z,4.80
2018-04-14T03:47:50.082Z,4.90
2018-04-14T03:50:19.098Z,4.90
2018-04-14T03:52:48.134Z,4.60
2018-04-14T03:55:17.196Z,4.40
2018-04-14T03:57:46.229Z,4.40
2018-04-14T04:00:15.274Z,4.50
2018-04-14T04:02:44.314Z,4.40
2018-04-14T04:05:13.357Z,4.60
2018-04-14T04:07:42.514Z,4.70
2018-04-14T04:10:11.568Z,4.70
2018-04-14T04:12:40.582Z,4.80
2018-04-14T04:15:09.681Z,4.80
2018-04-14T04:17:38.734Z,4.80
2018-04-14T04:20:21.478Z,4.80
2018-04-14T04:23:08.375Z,4.80
2018-04-14T04:25:43.287Z,4.90
2018-04-14T04:28:12.330Z,4.90
2018-04-14T04:30:42.238Z,4.80
2018-04-14T04:33:11.299Z,4.80
2018-04-14T04:35:40.321Z,4.80
2018-04-14T04:38:09.437Z,4.80
2018-04-14T04:40:39.215Z,4.80
2018-04-14T04:43:08.234Z,4.90
2018-04-14T04:45:37.343Z,4.90
2018-04-14T04:48:06.415Z,5.00
2018-04-14T04:50:35.502Z,4.70
2018-04-14T04:53:04.509Z,4.70
2018-04-14T04:55:33.526Z,4.70
2018-04-14T04:58:03.345Z,4.80
2018-04-14T05:00:32.390Z,4.70
2018-04-14T05:03:01.417Z,4.90
2018-04-14T05:05:31.234Z,4.80
2018-04-14T05:08:00.281Z,4.80
2018-04-14T05:10:29.334Z,4.90
2018-04-14T05:12:58.356Z,5.00
2018-04-14T05:15:27.432Z,5.10
2018-04-14T05:17:56.461Z,5.10
2018-04-14T05:20:25.517Z,5.10
2018-04-14T05:22:54.550Z,5.10
2018-04-14T05:25:23.602Z,5.10
2018-04-14T05:27:52.717Z,5.10
2018-04-14T05:30:21.757Z,5.30
2018-04-14T05:32:50.798Z,5.40
2018-04-14T05:35:19.849Z,5.60
2018-04-14T05:37:48.876Z,5.70
2018-04-14T05:40:17.915Z,5.80
2018-04-14T05:42:46.965Z,6.00
2018-04-14T05:45:16.026Z,6.00
2018-04-14T05:47:45.057Z,6.10
2018-04-14T05:50:14.074Z,6.10
2018-04-14T05:52:44.032Z,6.20
2018-04-14T05:55:13.082Z,6.30
2018-04-14T05:57:42.097Z,6.30
2018-04-14T06:00:11.161Z,6.40
2018-04-14T06:02:44.456Z,6.40
2018-04-14T06:05:13.668Z,6.60
2018-04-14T06:07:42.808Z,6.70
2018-04-14T06:10:11.953Z,6.80
2018-04-14T06:12:41.103Z,6.80
2018-04-14T06:15:10.130Z,7.10
2018-04-14T06:17:39.151Z,7.20
2018-04-14T06:20:09.022Z,7.50
2018-04-14T06:22:38.038Z,7.70
2018-04-14T06:25:07.059Z,8.00
2018-04-14T06:27:36.143Z,8.10
2018-04-14T06:30:05.942Z,8.30
2018-04-14T06:32:35.795Z,8.40
2018-04-14T06:35:04.861Z,8.60
2018-04-14T06:37:33.885Z,8.70
2018-04-14T06:40:02.947Z,8.90
2018-04-14T06:42:32.740Z,9.10
2018-04-14T06:45:01.908Z,9.40
2018-04-14T06:47:30.964Z,9.70
2018-04-14T06:50:00.010Z,10.00
2018-04-14T06:52:29.090Z,10.40
2018-04-14T06:54:58.145Z,10.50
2018-04-14T06:57:27.283Z,10.40
2018-04-14T06:59:56.352Z,10.70
2018-04-14T07:02:25.484Z,10.70
2018-04-14T07:04:54.529Z,10.80
2018-04-14T07:07:23.806Z,11.10
2018-04-14T07:09:57.599Z,11.20
2018-04-14T07:12:27.145Z,11.60
2018-04-14T07:14:56.834Z,11.90
2018-04-14T07:17:27.096Z,12.10
2018-04-14T07:19:57.043Z,12.30
2018-04-14T07:22:26.726Z,12.50
2018-04-14T07:24:55.772Z,12.90
2018-04-14T07:27:26.319Z,13.20
2018-04-14T07:29:56.187Z,13.30
2018-04-14T07:32:25.394Z,13.80
2018-04-14T07:34:54.652Z,14.10
2018-04-14T07:37:24.073Z,14.30
2018-04-14T07:39:53.173Z,14.60
2018-04-14T07:42:23.103Z,14.60
2018-04-14T07:44:52.290Z,14.30
2018-04-14T07:47:21.389Z,14.70
2018-04-14T07:49:50.972Z,15.10
2018-04-14T07:52:20.091Z,15.30
2018-04-14T07:54:49.753Z,15.10
2018-04-14T07:57:20.920Z,15.50
2018-04-14T07:59:50.785Z,15.90
2018-04-14T08:02:20.337Z,16.10
2018-04-14T08:04:49.917Z,16.10
2018-04-14T08:07:19.242Z,16.40
2018-04-14T08:09:48.537Z,16.50
2018-04-14T08:12:18.850Z,16.80
2018-04-14T08:14:48.446Z,17.00
2018-04-14T08:17:17.532Z,17.30
2018-04-14T08:19:46.760Z,17.40
2018-04-14T08:22:16.688Z,17.70
2018-04-14T08:24:45.756Z,17.80
2018-04-14T08:27:15.643Z,18.50
2018-04-14T08:29:44.706Z,18.70
2018-04-14T08:32:13.732Z,18.80
2018-04-14T08:34:42.839Z,19.40
2018-04-14T08:37:11.863Z,19.50
2018-04-14T08:39:40.915Z,19.70
2018-04-14T08:42:09.938Z,20.30
2018-04-14T08:44:39.138Z,20.60
2018-04-14T08:47:08.170Z,20.80
2018-04-14T08:49:37.288Z,20.80
2018-04-14T08:52:06.313Z,21.00
2018-04-14T08:54:35.378Z,20.60
2018-04-14T08:57:04.634Z,20.40
2018-04-14T08:59:37.360Z,20.60
2018-04-14T09:02:07.204Z,21.00
2018-04-14T09:04:36.310Z,21.40
2018-04-14T09:07:05.333Z,21.90
2018-04-14T09:09:34.436Z,21.60
2018-04-14T09:12:03.662Z,22.20
2018-04-14T09:14:32.838Z,22.20
2018-04-14T09:17:02.731Z,22.00
2018-04-14T09:19:31.943Z,22.30
2018-04-14T09:22:01.019Z,22.80
2018-04-14T09:24:30.173Z,23.00
2018-04-14T09:26:59.563Z,22.90
2018-04-14T09:29:28.609Z,23.10
2018-04-14T09:31:57.680Z,22.80
2018-04-14T09:34:27.176Z,23.20
2018-04-14T09:36:56.693Z,23.70
2018-04-14T09:39:26.139Z,24.00
2018-04-14T09:41:55.214Z,24.40
2018-04-14T09:44:24.242Z,24.00
2018-04-14T09:46:53.322Z,23.40
2018-04-14T09:49:22.398Z,23.60
2018-04-14T09:51:51.897Z,24.20
2018-04-14T09:54:21.802Z,24.60
2018-04-14T09:56:51.174Z,24.50
2018-04-14T09:59:20.333Z,24.50
2018-04-14T10:01:51.447Z,24.90
2018-04-14T10:04:20.503Z,24.80
2018-04-14T10:06:50.483Z,25.30
2018-04-14T10:09:19.570Z,24.30
2018-04-14T10:11:48.647Z,24.70
2018-04-14T10:14:17.719Z,24.30
2018-04-14T10:16:46.747Z,23.70
2018-04-14T10:19:15.788Z,23.30
2018-04-14T10:21:45.649Z,22.70
2018-04-14T10:24:14.806Z,22.60
2018-04-14T10:26:43.902Z,22.30
2018-04-14T10:29:12.945Z,22.70
2018-04-14T10:31:42.662Z,23.10
2018-04-14T10:34:11.698Z,23.30
2018-04-14T10:36:40.765Z,23.40
2018-04-14T10:39:09.824Z,23.40
2018-04-14T10:41:38.956Z,23.30
2018-04-14T10:44:08.043Z,22.70
2018-04-14T10:46:37.098Z,23.00
2018-04-14T10:49:06.189Z,23.00
2018-04-14T10:51:35.207Z,22.40
2018-04-14T10:54:04.233Z,22.70
2018-04-14T10:56:34.757Z,22.90
2018-04-14T10:59:04.750Z,23.10
2018-04-14T11:01:34.869Z,22.90
2018-04-14T11:04:04.392Z,22.60
2018-04-14T11:06:35.793Z,22.30
2018-04-14T11:09:06.615Z,23.00
2018-04-14T11:11:36.719Z,22.60
2018-04-14T11:14:06.357Z,22.70
2018-04-14T11:16:35.557Z,22.00
2018-04-14T11:19:04.595Z,22.40
2018-04-14T11:21:33.903Z,22.80
2018-04-14T11:24:02.921Z,22.40
2018-04-14T11:26:31.982Z,23.00
2018-04-14T11:29:01.009Z,23.00
2018-04-14T11:31:30.079Z,23.00
2018-04-14T11:33:59.116Z,23.50
2018-04-14T11:36:28.256Z,23.60
2018-04-14T11:38:57.311Z,23.60
2018-04-14T11:41:27.260Z,23.60
2018-04-14T11:43:56.497Z,23.60
2018-04-14T11:46:25.605Z,23.10
2018-04-14T11:48:55.719Z,23.30
2018-04-14T11:51:24.751Z,23.40
2018-04-14T11:53:59.515Z,24.00
2018-04-14T11:56:30.412Z,23.90
2018-04-14T11:58:59.888Z,24.50
2018-04-14T12:01:28.992Z,25.70
2018-04-14T12:03:58.056Z,26.80
2018-04-14T12:06:27.471Z,27.60
2018-04-14T12:08:56.664Z,27.90
2018-04-14T12:11:25.851Z,27.90
2018-04-14T12:13:54.910Z,28.00
2018-04-14T12:16:24.201Z,27.70
2018-04-14T12:18:53.757Z,27.10
2018-04-14T12:21:22.906Z,26.50
2018-04-14T12:23:51.976Z,25.50
2018-04-14T12:26:21.012Z,25.60
2018-04-14T12:28:50.114Z,25.30
2018-04-14T12:31:19.902Z,25.00
2018-04-14T12:33:49.036Z,24.30
2018-04-14T12:36:18.162Z,23.90
2018-04-14T12:38:47.252Z,23.50
2018-04-14T12:41:16.468Z,23.70
2018-04-14T12:43:45.522Z,23.30
2018-04-14T12:46:14.925Z,22.90
2018-04-14T12:48:44.264Z,22.90
2018-04-14T12:51:13.375Z,22.70
2018-04-14T12:53:43.251Z,22.50
2018-04-14T12:56:12.753Z,22.50
2018-04-14T12:58:41.849Z,23.30
2018-04-14T13:01:11.762Z,23.90
2018-04-14T13:03:41.101Z,24.10
2018-04-14T13:06:10.921Z,24.20
2018-04-14T13:08:39.946Z,23.60
2018-04-14T13:11:09.254Z,23.70
2018-04-14T13:13:40.685Z,23.80
2018-04-14T13:16:11.055Z,23.50
2018-04-14T13:18:40.653Z,23.40
2018-04-14T13:21:12.853Z,23.30
2018-04-14T13:23:43.940Z,23.30
2018-04-14T13:26:14.510Z,23.20
2018-04-14T13:28:43.995Z,23.10
2018-04-14T13:31:13.328Z,23.50
2018-04-14T13:33:43.919Z,23.80
2018-04-14T13:36:13.919Z,24.00
2018-04-14T13:38:43.039Z,23.90
2018-04-14T13:41:12.127Z,23.70
2018-04-14T13:43:41.197Z,23.70
2018-04-14T13:46:10.270Z,23.50
2018-04-14T13:48:39.386Z,24.00
2018-04-14T13:51:08.633Z,24.70
2018-04-14T13:53:38.034Z,24.60
2018-04-14T13:56:07.304Z,25.80
2018-04-14T13:58:36.621Z,27.60
2018-04-14T14:01:10.615Z,28.30
2018-04-14T14:03:49.752Z,28.50
2018-04-14T14:06:20.170Z,29.20
2018-04-14T14:08:51.109Z,30.20
2018-04-14T14:11:20.198Z,30.30
2018-04-14T14:13:49.293Z,31.80
2018-04-14T14:16:18.740Z,32.20
2018-04-14T14:18:49.629Z,32.60
2018-04-14T14:21:19.071Z,33.30
2018-04-14T14:23:49.131Z,33.50
2018-04-14T14:26:18.190Z,32.70
2018-04-14T14:28:47.264Z,32.10
2018-04-14T14:31:16.301Z,31.10
2018-04-14T14:33:45.376Z,32.90
2018-04-14T14:36:14.934Z,33.90
2018-04-14T14:38:44.767Z,33.80
2018-04-14T14:41:13.912Z,34.10
2018-04-14T14:43:42.975Z,33.20
2018-04-14T14:46:12.036Z,31.50
2018-04-14T14:48:41.160Z,30.10
2018-04-14T14:51:10.311Z,29.80
2018-04-14T14:53:39.393Z,29.10
2018-04-14T14:56:08.585Z,28.90
2018-04-14T14:58:39.394Z,29.30
2018-04-14T15:01:08.883Z,28.20
2018-04-14T15:03:37.951Z,28.60
2018-04-14T15:06:07.046Z,28.80
2018-04-14T15:08:36.095Z,28.20
2018-04-14T15:11:05.118Z,28.00
2018-04-14T15:13:34.202Z,28.00
2018-04-14T15:16:04.010Z,27.50
2018-04-14T15:18:33.136Z,27.20
2018-04-14T15:21:02.214Z,26.60
2018-04-14T15:23:31.640Z,26.50
2018-04-14T15:26:00.737Z,26.80
2018-04-14T15:28:29.898Z,26.90
2018-04-14T15:30:59.708Z,26.50
2018-04-14T15:33:28.775Z,26.00
2018-04-14T15:35:57.871Z,26.10
2018-04-14T15:38:26.935Z,25.60
2018-04-14T15:40:56.640Z,24.70
2018-04-14T15:43:25.790Z,23.80
2018-04-14T15:45:54.955Z,23.70
2018-04-14T15:48:24.028Z,23.90
2018-04-14T15:50:53.874Z,23.60
2018-04-14T15:53:22.902Z,23.80
2018-04-14T15:55:52.826Z,24.20
2018-04-14T15:58:22.127Z,24.20
2018-04-14T16:00:51.327Z,24.30
2018-04-14T16:03:20.547Z,24.10
2018-04-14T16:05:49.587Z,24.00
2018-04-14T16:08:18.985Z,23.80
2018-04-14T16:10:48.226Z,24.40
2018-04-14T16:13:17.285Z,24.60
2018-04-14T16:15:46.302Z,24.20
2018-04-14T16:18:15.417Z,24.40
2018-04-14T16:20:45.223Z,24.30
2018-04-14T16:23:14.286Z,24.40
2018-04-14T16:25:44.234Z,24.50
2018-04-14T16:28:13.308Z,24.80
2018-04-14T16:30:43.486Z,24.50
2018-04-14T16:33:12.951Z,24.10
2018-04-14T16:35:42.255Z,23.40
2018-04-14T16:38:11.381Z,23.00
2018-04-14T16:40:40.952Z,22.80
2018-04-14T16:43:10.202Z,22.70
2018-04-14T16:45:39.717Z,22.70
2018-04-14T16:48:08.913Z,22.40
2018-04-14T16:50:38.007Z,22.40
2018-04-14T16:53:07.195Z,23.10
2018-04-14T16:55:36.347Z,23.00
2018-04-14T16:58:05.421Z,22.50
2018-04-14T17:00:34.486Z,22.10
2018-04-14T17:03:03.554Z,22.00
2018-04-14T17:05:33.614Z,21.60
2018-04-14T17:08:02.779Z,21.30
2018-04-14T17:18:28.626Z,20.40
2018-04-14T17:20:58.018Z,20.40
2018-04-14T17:23:27.172Z,20.20
2018-04-14T17:25:56.334Z,20.00
2018-04-14T17:28:26.296Z,20.10
2018-04-14T17:30:55.354Z,20.00
2018-04-14T17:33:24.413Z,20.00
2018-04-14T17:35:53.444Z,20.00
2018-04-14T17:38:22.514Z,20.10
2018-04-14T17:40:51.555Z,20.10
2018-04-14T17:43:20.623Z,19.90
2018-04-14T17:45:49.797Z,19.60
2018-04-14T17:48:18.826Z,19.10
2018-04-14T17:50:47.904Z,19.20
2018-04-14T17:53:16.947Z,18.90
2018-04-14T17:55:46.100Z,18.50
2018-04-14T17:58:16.523Z,18.30
2018-04-14T18:00:45.867Z,17.70
2018-04-14T18:03:18.768Z,17.40
2018-04-14T18:05:49.281Z,17.40
2018-04-14T18:08:18.402Z,17.20
2018-04-14T18:10:48.341Z,17.20
2018-04-14T18:13:17.598Z,16.90
2018-04-14T18:15:46.964Z,16.80
2018-04-14T18:18:17.498Z,16.90
2018-04-14T18:20:46.673Z,16.70
2018-04-14T18:23:15.961Z,16.40
2018-04-14T18:25:45.467Z,16.30
2018-04-14T18:28:14.574Z,16.30
2018-04-14T18:30:43.683Z,16.00
2018-04-14T18:33:12.770Z,16.00
2018-04-14T18:35:41.798Z,15.80
2018-04-14T18:38:10.856Z,15.80
2018-04-14T18:40:39.882Z,15.60
2018-04-14T18:43:08.954Z,15.60
2018-04-14T18:45:37.966Z,15.30
2018-04-14T18:48:07.142Z,15.10
2018-04-14T18:50:36.353Z,15.20
2018-04-14T18:53:05.535Z,15.10
2018-04-14T18:55:34.698Z,14.90
2018-04-14T18:58:03.862Z,14.70
2018-04-14T19:00:33.771Z,14.70
2018-04-14T19:03:02.831Z,14.50
2018-04-14T19:05:31.904Z,14.30
2018-04-14T19:08:00.990Z,14.10
2018-04-14T19:10:30.054Z,13.70
2018-04-14T19:12:59.169Z,13.70
2018-04-14T19:15:28.440Z,13.60
2018-04-14T19:17:57.577Z,13.40
2018-04-14T19:20:26.575Z,13.30
2018-04-14T19:22:55.626Z,13.30
2018-04-14T19:25:24.662Z,13.40
2018-04-14T19:27:53.725Z,13.50
2018-04-14T19:30:22.762Z,13.40
2018-04-14T19:32:51.973Z,13.10
2018-04-14T19:35:21.002Z,13.20
2018-04-14T19:37:51.797Z,13.20
2018-04-14T19:40:20.811Z,12.90
2018-04-14T19:42:51.302Z,12.80
2018-04-14T19:45:20.503Z,12.90
2018-04-14T19:47:49.569Z,12.90
2018-04-14T19:50:18.616Z,12.60
2018-04-14T19:52:47.749Z,12.60
2018-04-14T19:55:17.549Z,12.80
2018-04-14T19:57:48.578Z,12.70
2018-04-14T20:00:17.608Z,12.60
2018-04-14T20:02:48.178Z,12.60
2018-04-14T20:05:17.299Z,12.60
2018-04-14T20:07:47.767Z,12.60
2018-04-14T20:10:16.818Z,12.40
2018-04-14T20:12:45.899Z,12.40
2018-04-14T20:15:14.927Z,12.20
2018-04-14T20:17:43.970Z,11.90
2018-04-14T20:20:13.091Z,11.90
2018-04-14T20:22:42.942Z,12.00
2018-04-14T20:25:12.211Z,12.00
2018-04-14T20:27:41.322Z,11.90
2018-04-14T20:30:11.263Z,11.80
2018-04-14T20:32:40.482Z,11.80
2018-04-14T20:35:09.594Z,11.70
2018-04-14T20:37:38.898Z,11.60
2018-04-14T20:40:08.240Z,11.70
2018-04-14T20:42:37.354Z,11.30
2018-04-14T20:45:06.482Z,11.30
2018-04-14T20:47:35.744Z,11.30
2018-04-14T20:50:04.904Z,11.10
2018-04-14T20:52:34.387Z,11.30
2018-04-14T20:58:12.170Z,11.20
2018-04-14T21:00:43.655Z,11.10
2018-04-14T21:03:12.730Z,11.10
2018-04-14T21:05:41.759Z,11.10
2018-04-14T21:08:10.846Z,11.00
2018-04-14T21:10:39.878Z,10.90
2018-04-14T21:13:08.910Z,10.90
2018-04-14T21:15:38.066Z,11.00
2018-04-14T21:18:07.140Z,10.90
2018-04-14T21:20:36.320Z,10.90
2018-04-14T21:23:07.116Z,10.70
2018-04-14T21:25:36.190Z,10.50
2018-04-14T21:28:05.222Z,10.30
2018-04-14T21:30:34.555Z,10.60
2018-04-14T21:33:03.870Z,10.70
2018-04-14T21:35:33.231Z,10.60
2018-04-14T21:38:02.270Z,10.60
2018-04-14T21:40:31.364Z,10.50
2018-04-14T21:43:00.414Z,10.60
2018-04-14T21:45:29.443Z,10.70
2018-04-14T21:47:59.288Z,10.70
2018-04-14T21:50:28.319Z,10.50
2018-04-14T21:52:58.269Z,10.40
2018-04-14T21:55:27.321Z,10.60
2018-04-14T21:57:56.355Z,10.60
2018-04-14T22:00:25.423Z,10.50
2018-04-14T22:02:54.467Z,10.50
2018-04-14T22:05:24.426Z,10.50
2018-04-14T22:07:54.242Z,10.40
2018-04-14T22:10:23.410Z,10.40
2018-04-14T22:12:52.923Z,10.50
2018-04-14T22:15:21.950Z,10.40
2018-04-14T22:17:51.780Z,10.50
2018-04-14T22:20:20.956Z,10.50
2018-04-14T22:22:50.779Z,10.60
2018-04-14T22:25:20.582Z,10.60
2018-04-14T22:27:49.633Z,10.40
2018-04-14T22:30:18.670Z,10.30
2018-04-14T22:32:49.145Z,9.50
2018-04-14T22:35:18.177Z,9.60
2018-04-14T22:37:47.242Z,9.70
2018-04-14T22:40:16.257Z,9.70
2018-04-14T22:42:45.300Z,9.90
2018-04-14T22:45:14.308Z,9.70
2018-04-14T22:47:43.329Z,9.60
2018-04-14T22:50:12.384Z,9.80
2018-04-14T22:52:41.409Z,9.60
2018-04-14T22:55:10.433Z,9.40
2018-04-14T22:57:40.264Z,9.40
2018-04-14T23:00:09.410Z,9.40
2018-04-14T23:02:38.435Z,9.50
2018-04-14T23:05:08.253Z,9.60
2018-04-14T23:07:37.279Z,9.10
2018-04-14T23:10:06.342Z,9.40
2018-04-14T23:12:35.362Z,9.30
2018-04-14T23:15:04.413Z,9.30
2018-04-14T23:17:33.582Z,9.30
2018-04-14T23:20:02.667Z,9.40
2018-04-14T23:22:32.677Z,9.00
2018-04-14T23:25:01.855Z,9.20
2018-04-14T23:27:31.025Z,9.20
2018-04-14T23:30:00.815Z,9.40
2018-04-14T23:32:29.902Z,9.50
2018-04-14T23:34:59.696Z,9.40
2018-04-14T23:37:28.915Z,9.40
2018-04-14T23:39:57.986Z,9.50
2018-04-14T23:42:27.147Z,9.50
2018-04-14T23:44:56.174Z,9.50
2018-04-14T23:47:25.194Z,9.50
2018-04-14T23:49:54.235Z,9.60
2018-04-14T23:52:23.252Z,9.70
2018-04-14T23:54:52.407Z,9.70
2018-04-14T23:57:21.426Z,9.60
2018-04-14T23:59:50.438Z,9.70
